Star City, AR

8:34 PM CST on February 20, 2017 (GMT -0600)
Grider | | Change Station

Elev 203 ft 34.17 °N, 91.93 °W | Updated 13 minutes ago

Rain
Rain
63 °F
Feels Like 63 °F
N
12
Wind Variable Wind from WNW
Gusts 24 mph

Today
High -- | Low -- °F
--% Chance of Precip.
Yesterday
High -- | Low -- °F
Precip. -- in
Pressure 29.92 in
Visibility 5.0 miles
Clouds Few 1000 ft
Scattered Clouds 2600 ft
Overcast 3700 ft
Dew Point 60 °F
Humidity 90%
Rainfall 0.24 in
Snow Depth Not available.
6:46 AM 5:56 PM
Waning Crescent, 29% visible
SPECI KPBF 210221Z AUTO 29010G21KT 5SM +RA BR FEW010 SCT026 OVC037 17/16 A2992 RMK AO2 P0024 T01720156
Pressure 29.92 in
Visibility 5.0 miles
Clouds Few 1000 ft
Scattered Clouds 2600 ft
Overcast 3700 ft
Dew Point 60 °F
Humidity 90%
Rainfall 0.24 in
Snow Depth Not available.
6:46 AM 5:56 PM
Waning Crescent, 29% visible
SPECI KPBF 210221Z AUTO 29010G21KT 5SM +RA BR FEW010 SCT026 OVC037 17/16 A2992 RMK AO2 P0024 T01720156

Get Your Daily Forecast Email!

Thanks for signing up!

Be on the lookout for a verification email in your inbox.

You'll start receiving the daily forecast at 8 AM.

×

10-Day Weather Forecast

Almanac

Astronomy

Feb. 20, 2017 Rise Set
Actual Time
Civil Twilight
Nautical Twilight
Astronomical Twilight
Moon
Length of Visible Light
Length of Day
Tomorrow will be .
, % of the Moon is Illuminated

Today's Extremes

State Highs State Lows

Community

WunderPhotos

Upload Photos

1,962,540 photos uploaded!

WunderBlog® & News

Nearby

Air Quality

  Air Quality AQ Index Pollutant
Not available.

Snow Depth

Station Depth Elevation

Earthquake Activity

City Distance Mag. Time & Date
Minimum magnitude displayed is 2.5.

Coastal Water Temperatures

Place Temperature

Stations

Nearby Weather Stations

Station Location Temp. Windchill Dew Point Humidity Wind Precip. Elev Updated Type
                   

Watches & Warnings

There are currently no watches in effect.